Startup, WA (98293)

2:52 AM PDT on September 28, 2016 (GMT -0700)
Sultan Startup Rd | | Change Station

Elev 141 ft 47.87 °N, 121.75 °W | Updated 13 minutes ago

Clear
Clear
43.7 °F
Feels Like 44 °F
N
0.0
Wind Variable Wind from NE

Today
High -- | Low -- °F
--% Chance of Precip.
Yesterday
High -- | Low -- °F
Precip. -- in
Pressure 30.13 in
Visibility 10.0 miles
Clouds Clear
Windchill 44 °F
Dew Point 42 °F
Humidity 95%
Rainfall 0.00 in
Snow Depth Not available.
7:02 AM 6:51 PM
Waning Crescent, 6% visible
METAR KPAE 280853Z AUTO 00000KT 10SM CLR 11/08 A3013 RMK AO2 SLP203 T01060083 58005
Pressure 30.13 in
Visibility 10.0 miles
Clouds Clear
Windchill 44 °F
Dew Point 42 °F
Humidity 95%
Rainfall 0.00 in
Snow Depth Not available.
7:02 AM 6:51 PM
Waning Crescent, 6% visible
METAR KPAE 280853Z AUTO 00000KT 10SM CLR 11/08 A3013 RMK AO2 SLP203 T01060083 58005

10-Day Weather Forecast

Almanac

Astronomy

Sep. 28, 2016 Rise Set
Actual Time
Civil Twilight
Nautical Twilight
Astronomical Twilight
Moon
Length of Visible Light
Length of Day
Tomorrow will be .
, % of the Moon is Illuminated

Today's Extremes

State Highs State Lows

Community

WunderPhotos

Upload Photos

1,942,216 photos uploaded!

WunderBlog® & News

Nearby

Air Quality

  Air Quality AQ Index Pollutant
Not available.

Snow Depth

Station Depth Elevation

Earthquake Activity

City Distance Mag. Time & Date
Minimum magnitude displayed is 2.5.

Coastal Water Temperatures

Place Temperature

Stations

Nearby Weather Stations

Station Location Temp. Windchill Dew Point Humidity Wind Precip. Elev Updated Type
                   

Watches & Warnings

There are currently no watches in effect.